createdAt,value
2018-03-14T00:02:09.170Z,1.60
2018-03-14T00:04:38.006Z,1.67
2018-03-14T00:07:06.765Z,1.40
2018-03-14T00:09:35.590Z,1.80
2018-03-14T00:12:04.389Z,1.80
2018-03-14T00:14:33.204Z,1.67
2018-03-14T00:17:02.011Z,1.57
2018-03-14T00:19:30.881Z,1.73
2018-03-14T00:22:01.971Z,1.90
2018-03-14T00:24:30.792Z,1.57
2018-03-14T00:26:59.598Z,1.50
2018-03-14T00:29:28.413Z,1.60
2018-03-14T00:31:57.198Z,1.77
2018-03-14T00:34:26.102Z,1.80
2018-03-14T00:36:54.995Z,1.60
2018-03-14T00:39:23.815Z,1.63
2018-03-14T00:41:53.328Z,1.63
2018-03-14T00:44:22.130Z,1.60
2018-03-14T00:46:50.918Z,1.70
2018-03-14T00:49:19.732Z,1.70
2018-03-14T00:51:48.540Z,1.60
2018-03-14T00:54:17.345Z,1.60
2018-03-14T00:56:46.150Z,1.40
2018-03-14T00:59:14.931Z,1.60
2018-03-14T01:01:43.719Z,1.70
2018-03-14T01:04:12.552Z,1.77
2018-03-14T01:06:41.345Z,1.63
2018-03-14T01:09:10.226Z,1.97
2018-03-14T01:11:39.046Z,2.00
2018-03-14T01:14:07.931Z,1.63
2018-03-14T01:16:36.735Z,1.70
2018-03-14T01:19:05.542Z,1.90
2018-03-14T01:21:34.374Z,1.80
2018-03-14T01:24:03.171Z,2.03
2018-03-14T01:26:31.978Z,1.70
2018-03-14T01:29:00.798Z,1.80
2018-03-14T01:31:29.582Z,1.87
2018-03-14T01:33:58.480Z,1.93
2018-03-14T01:36:27.270Z,1.93
2018-03-14T01:38:56.086Z,2.07
2018-03-14T01:41:24.878Z,1.87
2018-03-14T01:43:53.699Z,2.17
2018-03-14T01:46:22.546Z,1.90
2018-03-14T01:48:51.338Z,2.00
2018-03-14T01:51:20.127Z,1.90
2018-03-14T01:53:48.938Z,1.87
2018-03-14T01:56:17.751Z,2.03
2018-03-14T01:58:46.662Z,2.20
2018-03-14T02:01:15.504Z,2.07
2018-03-14T02:03:44.314Z,1.90
2018-03-14T02:06:13.178Z,2.00
2018-03-14T02:08:41.974Z,2.50
2018-03-14T02:11:10.791Z,2.17
2018-03-14T02:13:39.615Z,2.27
2018-03-14T02:16:08.650Z,2.30
2018-03-14T02:18:37.459Z,2.20
2018-03-14T02:21:06.275Z,2.73
2018-03-14T02:23:35.930Z,2.47
2018-03-14T02:26:04.726Z,2.70
2018-03-14T02:28:33.534Z,2.77
2018-03-14T02:31:02.354Z,2.80
2018-03-14T02:33:31.155Z,2.77
2018-03-14T02:35:59.970Z,2.83
2018-03-14T02:38:28.783Z,2.90
2018-03-14T02:40:57.594Z,3.03
2018-03-14T02:43:26.398Z,3.00
2018-03-14T02:45:55.313Z,3.20
2018-03-14T02:48:24.119Z,3.13
2018-03-14T02:50:52.910Z,3.80
2018-03-14T02:53:21.714Z,3.57
2018-03-14T02:55:50.584Z,3.57
2018-03-14T02:58:19.381Z,3.90
2018-03-14T03:00:48.212Z,3.93
2018-03-14T03:03:17.056Z,4.10
2018-03-14T03:05:45.851Z,4.23
2018-03-14T03:08:14.663Z,4.97
2018-03-14T03:10:43.482Z,5.03
2018-03-14T03:13:12.273Z,4.63
2018-03-14T03:15:41.078Z,5.13
2018-03-14T03:18:09.899Z,5.03
2018-03-14T03:20:38.726Z,5.53
2018-03-14T03:23:07.538Z,5.70
2018-03-14T03:25:36.336Z,5.40
2018-03-14T03:28:05.148Z,5.33
2018-03-14T03:30:33.947Z,5.60
2018-03-14T03:33:02.751Z,5.93
2018-03-14T03:35:31.554Z,6.03
2018-03-14T03:38:00.375Z,4.80
2018-03-14T03:40:29.191Z,5.60
2018-03-14T03:42:57.988Z,5.37
2018-03-14T03:45:26.824Z,5.63
2018-03-14T03:47:55.735Z,5.50
2018-03-14T03:50:24.554Z,4.90
2018-03-14T03:52:53.376Z,5.20
2018-03-14T03:55:22.231Z,6.17
2018-03-14T03:57:51.039Z,6.40
2018-03-14T04:00:19.847Z,5.50
2018-03-14T04:02:48.702Z,5.57
2018-03-14T04:05:17.490Z,5.23
2018-03-14T04:07:46.281Z,5.53
2018-03-14T04:10:15.088Z,5.27
2018-03-14T04:12:43.909Z,5.33
2018-03-14T04:15:12.721Z,4.87
2018-03-14T04:17:41.535Z,5.20
2018-03-14T04:20:10.338Z,5.03
2018-03-14T04:22:39.126Z,5.03
2018-03-14T04:25:07.939Z,4.60
2018-03-14T04:27:36.730Z,5.07
2018-03-14T04:30:05.540Z,5.40
2018-03-14T04:32:34.351Z,5.43
2018-03-14T04:35:03.159Z,5.33
2018-03-14T04:37:31.939Z,5.43
2018-03-14T04:40:00.753Z,5.20
2018-03-14T04:42:29.560Z,5.33
2018-03-14T04:44:58.360Z,5.57
2018-03-14T04:47:27.188Z,5.00
2018-03-14T04:49:55.976Z,4.80
2018-03-14T04:52:24.791Z,4.90
2018-03-14T04:54:53.586Z,5.53
2018-03-14T04:57:22.456Z,4.77
2018-03-14T04:59:51.278Z,4.60
2018-03-14T05:02:20.128Z,3.23
2018-03-14T05:04:48.904Z,3.77
2018-03-14T05:07:17.718Z,3.83
2018-03-14T05:09:46.534Z,3.97
2018-03-14T05:12:15.326Z,3.70
2018-03-14T05:14:44.133Z,3.27
2018-03-14T05:17:12.948Z,4.13
2018-03-14T05:19:41.806Z,4.00
2018-03-14T05:22:10.619Z,4.30
2018-03-14T05:24:39.491Z,3.97
2018-03-14T05:27:08.291Z,4.20
2018-03-14T05:29:37.179Z,3.73
2018-03-14T05:32:05.975Z,3.97
2018-03-14T05:34:34.794Z,4.40
2018-03-14T05:37:03.715Z,4.07
2018-03-14T05:39:32.559Z,4.13
2018-03-14T05:42:01.446Z,4.03
2018-03-14T05:44:30.247Z,4.40
2018-03-14T05:46:59.131Z,4.67
2018-03-14T05:49:27.934Z,5.10
2018-03-14T05:51:56.818Z,5.03
2018-03-14T05:54:25.645Z,5.70
2018-03-14T05:56:54.429Z,5.10
2018-03-14T05:59:23.294Z,5.27
2018-03-14T06:01:52.096Z,5.60
2018-03-14T06:04:20.914Z,5.53
2018-03-14T06:06:49.727Z,5.43
2018-03-14T06:09:18.871Z,5.30
2018-03-14T06:11:48.356Z,5.57
2018-03-14T06:14:17.154Z,5.20
2018-03-14T06:16:45.985Z,4.87
2018-03-14T06:19:14.833Z,5.60
2018-03-14T06:21:43.655Z,5.27
2018-03-14T06:24:12.452Z,6.07
2018-03-14T06:26:41.251Z,5.83
2018-03-14T06:29:10.879Z,5.17
2018-03-14T06:31:39.703Z,6.30
2018-03-14T06:34:08.522Z,5.20
2018-03-14T06:36:37.325Z,5.20
2018-03-14T06:39:06.167Z,5.33
2018-03-14T06:41:34.954Z,5.13
2018-03-14T06:44:03.758Z,5.57
2018-03-14T06:46:32.624Z,5.53
2018-03-14T06:49:01.429Z,5.23
2018-03-14T06:51:30.268Z,5.33
2018-03-14T06:53:59.071Z,5.00
2018-03-14T06:56:27.887Z,5.10
2018-03-14T06:59:02.668Z,5.57
2018-03-14T07:01:37.240Z,5.17
2018-03-14T07:04:26.884Z,5.57
2018-03-14T07:06:56.121Z,4.97
2018-03-14T07:09:24.923Z,4.90
2018-03-14T07:11:53.727Z,4.97
2018-03-14T07:14:22.543Z,5.50
2018-03-14T07:16:51.351Z,5.37
2018-03-14T07:19:20.183Z,5.00
2018-03-14T07:21:48.988Z,5.17
2018-03-14T07:24:17.879Z,4.77
2018-03-14T07:26:46.662Z,5.00
2018-03-14T07:29:15.486Z,5.33
2018-03-14T07:31:44.302Z,5.73
2018-03-14T07:34:13.123Z,5.10
2018-03-14T07:36:41.934Z,5.03
2018-03-14T07:39:10.727Z,5.50
2018-03-14T07:41:39.536Z,5.43
2018-03-14T07:44:08.432Z,5.80
2018-03-14T07:46:37.335Z,5.23
2018-03-14T07:49:06.138Z,5.40
2018-03-14T07:51:35.028Z,6.57
2018-03-14T07:54:03.912Z,6.33
2018-03-14T07:56:32.725Z,5.93
2018-03-14T07:59:01.582Z,5.43
2018-03-14T08:01:30.396Z,5.83
2018-03-14T08:03:59.190Z,4.97
2018-03-14T08:06:28.030Z,4.90
2018-03-14T08:08:56.831Z,4.77
2018-03-14T08:11:25.646Z,4.97
2018-03-14T08:13:54.526Z,4.80
2018-03-14T08:16:23.251Z,5.40
2018-03-14T08:18:52.067Z,4.93
2018-03-14T08:21:20.883Z,4.50
2018-03-14T08:23:49.694Z,4.33
2018-03-14T08:26:18.520Z,4.40
2018-03-14T08:28:47.336Z,4.90
2018-03-14T08:31:16.146Z,4.30
2018-03-14T08:33:44.959Z,3.53
2018-03-14T08:36:13.784Z,4.03
2018-03-14T08:38:42.576Z,4.00
2018-03-14T08:41:11.385Z,4.27
2018-03-14T08:43:40.202Z,4.53
2018-03-14T08:46:09.023Z,6.30
2018-03-14T08:48:37.854Z,5.40
2018-03-14T08:51:06.677Z,4.67
2018-03-14T08:53:35.464Z,3.97
2018-03-14T08:56:04.279Z,3.80
2018-03-14T08:58:33.136Z,3.40
2018-03-14T09:01:02.019Z,3.97
2018-03-14T09:03:30.915Z,3.13
2018-03-14T09:05:59.776Z,3.50
2018-03-14T09:08:28.619Z,3.07
2018-03-14T09:10:57.422Z,2.90
2018-03-14T09:13:26.226Z,2.63
2018-03-14T09:15:55.035Z,2.50
2018-03-14T09:18:23.833Z,2.43
2018-03-14T09:20:52.648Z,2.53
2018-03-14T09:23:21.441Z,2.80
2018-03-14T09:25:50.258Z,2.63
2018-03-14T09:28:19.056Z,2.57
2018-03-14T09:30:47.923Z,2.60
2018-03-14T09:33:16.790Z,2.50
2018-03-14T09:35:45.545Z,2.87
2018-03-14T09:38:14.360Z,2.50
2018-03-14T09:40:43.174Z,2.60
2018-03-14T09:43:11.983Z,2.53
2018-03-14T09:45:40.803Z,2.47
2018-03-14T09:48:09.700Z,2.70
2018-03-14T09:50:38.521Z,2.50
2018-03-14T09:53:07.326Z,2.60
2018-03-14T09:55:36.140Z,2.80
2018-03-14T09:58:04.942Z,2.90
2018-03-14T10:00:33.788Z,2.97
2018-03-14T10:03:02.628Z,2.93
2018-03-14T10:05:31.472Z,2.97
2018-03-14T10:08:00.265Z,2.70
2018-03-14T10:10:29.076Z,3.17
2018-03-14T10:12:57.900Z,2.80
2018-03-14T10:15:26.689Z,3.00
2018-03-14T10:17:55.543Z,2.83
2018-03-14T10:20:24.343Z,3.10
2018-03-14T10:22:53.155Z,3.03
2018-03-14T10:25:21.942Z,3.13
2018-03-14T10:27:50.760Z,3.33
2018-03-14T10:30:19.574Z,2.90
2018-03-14T10:32:48.387Z,2.50
2018-03-14T10:35:17.208Z,2.83
2018-03-14T10:37:45.992Z,3.07
2018-03-14T10:40:14.804Z,2.83
2018-03-14T10:42:43.671Z,3.60
2018-03-14T10:45:12.558Z,3.37
2018-03-14T10:47:41.352Z,3.37
2018-03-14T10:50:10.177Z,3.00
2018-03-14T10:52:38.996Z,3.27
2018-03-14T10:55:07.781Z,2.70
2018-03-14T10:57:36.603Z,3.10
2018-03-14T11:00:05.427Z,2.90
2018-03-14T11:02:34.236Z,2.77
2018-03-14T11:05:03.043Z,2.50
2018-03-14T11:07:31.914Z,2.70
2018-03-14T11:10:00.714Z,2.67
2018-03-14T11:12:29.606Z,2.77
2018-03-14T11:14:58.422Z,2.73
2018-03-14T11:17:27.251Z,3.07
2018-03-14T11:19:56.042Z,2.93
2018-03-14T11:22:24.875Z,3.20
2018-03-14T11:27:28.996Z,3.40
2018-03-14T11:29:57.800Z,2.80
2018-03-14T11:32:26.599Z,3.23
2018-03-14T11:34:55.410Z,3.40
2018-03-14T11:37:24.206Z,2.90
2018-03-14T11:39:53.059Z,3.17
2018-03-14T11:42:22.015Z,3.13
2018-03-14T11:44:50.763Z,2.97
2018-03-14T11:47:19.579Z,3.33
2018-03-14T11:49:48.375Z,3.17
2018-03-14T11:52:17.236Z,2.60
2018-03-14T11:54:46.059Z,3.10
2018-03-14T11:57:14.885Z,3.00
2018-03-14T11:59:43.670Z,2.50
2018-03-14T12:02:12.466Z,2.60
2018-03-14T12:04:41.282Z,2.70
2018-03-14T12:07:10.067Z,2.87
2018-03-14T12:09:38.914Z,2.67
2018-03-14T12:12:07.811Z,2.97
2018-03-14T12:14:36.676Z,2.70
2018-03-14T12:17:05.481Z,2.50
2018-03-14T12:19:34.426Z,2.63
2018-03-14T12:22:03.227Z,2.60
2018-03-14T12:24:32.064Z,2.43
2018-03-14T12:27:00.858Z,2.50
2018-03-14T12:29:29.748Z,2.57
2018-03-14T12:31:58.626Z,2.80
2018-03-14T12:34:27.423Z,2.63
2018-03-14T12:36:56.330Z,2.93
2018-03-14T12:39:25.129Z,2.97
2018-03-14T12:41:53.948Z,2.87
2018-03-14T12:44:22.773Z,2.77
2018-03-14T12:46:51.591Z,2.80
2018-03-14T12:49:20.415Z,2.80
2018-03-14T12:51:49.215Z,2.40
2018-03-14T12:54:18.024Z,2.77
2018-03-14T12:56:46.892Z,2.70
2018-03-14T12:59:15.771Z,2.50
2018-03-14T13:01:44.564Z,2.60
2018-03-14T13:04:13.455Z,2.37
2018-03-14T13:06:42.259Z,2.30
2018-03-14T13:09:11.073Z,2.20
2018-03-14T13:11:39.886Z,2.23
2018-03-14T13:14:08.772Z,2.50
2018-03-14T13:16:37.586Z,2.60
2018-03-14T13:19:06.397Z,2.20
2018-03-14T13:21:35.221Z,2.57
2018-03-14T13:24:04.012Z,2.40
2018-03-14T13:26:32.819Z,2.43
2018-03-14T13:29:01.601Z,2.50
2018-03-14T13:31:30.415Z,2.57
2018-03-14T13:33:59.290Z,2.83
2018-03-14T13:36:28.076Z,2.47
2018-03-14T13:38:56.970Z,2.47
2018-03-14T13:41:25.759Z,2.47
2018-03-14T13:43:54.575Z,2.47
2018-03-14T13:46:23.462Z,2.37
2018-03-14T13:48:52.346Z,2.43
2018-03-14T13:51:21.164Z,2.33
2018-03-14T13:53:49.959Z,2.57
2018-03-14T13:56:18.776Z,2.40
2018-03-14T13:58:47.632Z,2.70
2018-03-14T14:01:16.443Z,2.50
2018-03-14T14:03:45.273Z,2.57
2018-03-14T14:06:14.089Z,2.63
2018-03-14T14:08:42.878Z,2.50
2018-03-14T14:11:11.795Z,2.13
2018-03-14T14:13:40.583Z,2.50
2018-03-14T14:16:09.395Z,2.63
2018-03-14T14:18:38.190Z,2.63
2018-03-14T14:21:06.999Z,2.70
2018-03-14T14:23:35.801Z,2.57
2018-03-14T14:26:04.627Z,2.60
2018-03-14T14:28:33.479Z,2.57
2018-03-14T14:31:02.346Z,3.30
2018-03-14T14:33:31.223Z,3.00
2018-03-14T14:36:00.129Z,3.03
2018-03-14T14:38:28.930Z,3.30
2018-03-14T14:40:57.771Z,3.27
2018-03-14T14:43:26.561Z,3.40
2018-03-14T14:45:55.354Z,3.80
2018-03-14T14:48:24.167Z,4.07
2018-03-14T14:50:52.984Z,3.70
2018-03-14T14:53:21.883Z,3.13
2018-03-14T14:55:50.699Z,3.20
2018-03-14T14:58:19.604Z,3.60
2018-03-14T15:00:48.412Z,3.20
2018-03-14T15:03:17.218Z,3.87
2018-03-14T15:05:46.116Z,3.83
2018-03-14T15:08:14.925Z,3.80
2018-03-14T15:10:43.720Z,4.30
2018-03-14T15:13:12.536Z,3.27
2018-03-14T15:15:41.350Z,4.27
2018-03-14T15:18:10.237Z,3.87
2018-03-14T15:20:39.035Z,3.93
2018-03-14T15:23:07.862Z,3.70
2018-03-14T15:25:36.721Z,3.97
2018-03-14T15:28:06.132Z,3.63
2018-03-14T15:30:34.955Z,3.53
2018-03-14T15:33:03.756Z,3.67
2018-03-14T15:35:32.581Z,3.60
2018-03-14T15:38:01.384Z,3.87
2018-03-14T15:40:30.185Z,4.20
2018-03-14T15:42:58.995Z,3.93
2018-03-14T15:45:27.815Z,4.13
2018-03-14T15:47:56.620Z,4.43
2018-03-14T15:50:25.439Z,3.93
2018-03-14T15:52:54.259Z,4.20
2018-03-14T15:55:23.064Z,4.37
2018-03-14T15:57:51.870Z,3.63
2018-03-14T16:00:20.662Z,4.07
2018-03-14T16:02:49.539Z,4.20
2018-03-14T16:05:18.324Z,4.00
2018-03-14T16:07:47.135Z,3.87
2018-03-14T16:10:16.013Z,4.10
2018-03-14T16:12:44.842Z,3.63
2018-03-14T16:15:13.640Z,4.10
2018-03-14T16:17:42.458Z,3.93
2018-03-14T16:20:11.261Z,4.07
2018-03-14T16:22:40.045Z,4.03
2018-03-14T16:25:08.859Z,3.40
2018-03-14T16:27:37.655Z,3.90
2018-03-14T16:30:06.483Z,3.43
2018-03-14T16:32:35.292Z,4.27
2018-03-14T16:35:04.149Z,3.67
2018-03-14T16:37:33.043Z,4.17
2018-03-14T16:40:01.937Z,4.43
2018-03-14T16:42:30.831Z,4.40
2018-03-14T16:44:59.638Z,4.40
2018-03-14T16:47:28.441Z,4.00
2018-03-14T16:49:57.254Z,4.07
2018-03-14T16:52:26.107Z,4.93
2018-03-14T16:54:54.896Z,4.27
2018-03-14T16:57:23.784Z,4.80
2018-03-14T16:59:52.642Z,4.50
2018-03-14T17:02:21.483Z,4.17
2018-03-14T17:04:50.295Z,5.00
2018-03-14T17:07:19.069Z,4.40
2018-03-14T17:09:47.887Z,4.93
2018-03-14T17:12:16.706Z,4.60
2018-03-14T17:14:45.539Z,4.40
2018-03-14T17:17:14.335Z,5.67
2018-03-14T17:19:43.139Z,5.03
2018-03-14T17:22:11.951Z,5.10
2018-03-14T17:24:40.767Z,5.03
2018-03-14T17:27:09.561Z,5.33
2018-03-14T17:29:38.375Z,6.53
2018-03-14T17:32:07.185Z,8.30
2018-03-14T17:34:36.091Z,10.00
2018-03-14T17:37:05.066Z,10.07
2018-03-14T17:39:34.030Z,7.60
2018-03-14T17:42:02.898Z,7.07
2018-03-14T17:44:31.694Z,6.93
2018-03-14T17:47:00.511Z,7.17
2018-03-14T17:49:29.308Z,8.00
2018-03-14T17:51:58.123Z,6.60
2018-03-14T17:54:26.968Z,6.60
2018-03-14T17:56:55.839Z,7.80
2018-03-14T17:59:24.631Z,8.07
2018-03-14T18:01:53.595Z,7.50
2018-03-14T18:04:22.441Z,7.10
2018-03-14T18:06:51.345Z,5.60
2018-03-14T18:09:20.147Z,4.50
2018-03-14T18:11:49.003Z,4.20
2018-03-14T18:14:17.823Z,3.63
2018-03-14T18:16:46.641Z,3.73
2018-03-14T18:19:15.464Z,3.77
2018-03-14T18:21:44.272Z,3.27
2018-03-14T18:24:13.093Z,3.40
2018-03-14T18:26:41.976Z,3.40
2018-03-14T18:29:10.782Z,3.53
2018-03-14T18:31:39.578Z,3.30
2018-03-14T18:34:08.379Z,3.87
2018-03-14T18:36:37.171Z,3.67
2018-03-14T18:39:06.055Z,3.80
2018-03-14T18:41:34.851Z,3.70
2018-03-14T18:44:03.664Z,3.90
2018-03-14T18:46:32.458Z,3.93
2018-03-14T18:49:01.284Z,4.87
2018-03-14T18:51:30.099Z,4.00
2018-03-14T18:53:58.911Z,3.87
2018-03-14T18:56:27.813Z,4.47
2018-03-14T18:58:56.596Z,4.03
2018-03-14T19:01:25.530Z,4.17
2018-03-14T19:03:54.327Z,4.20
2018-03-14T19:06:23.143Z,4.00
2018-03-14T19:08:51.943Z,4.10
2018-03-14T19:11:20.767Z,4.50
2018-03-14T19:13:49.663Z,4.30
2018-03-14T19:16:18.616Z,4.40
2018-03-14T19:18:47.463Z,5.00
2018-03-14T19:21:16.276Z,4.37
2018-03-14T19:23:45.071Z,4.47
2018-03-14T19:26:13.924Z,4.20
2018-03-14T19:28:42.727Z,4.27
2018-03-14T19:31:11.534Z,4.90
2018-03-14T19:33:40.361Z,4.30
2018-03-14T19:36:09.265Z,4.60
2018-03-14T19:38:38.101Z,4.17
2018-03-14T19:41:06.896Z,4.60
2018-03-14T19:43:35.703Z,4.73
2018-03-14T19:46:04.490Z,4.70
2018-03-14T19:48:33.322Z,5.03
2018-03-14T19:51:02.153Z,4.20
2018-03-14T19:53:30.955Z,4.77
2018-03-14T19:55:59.767Z,4.50
2018-03-14T19:58:28.559Z,4.70
2018-03-14T20:00:57.392Z,4.50
2018-03-14T20:03:26.202Z,3.93
2018-03-14T20:05:55.032Z,4.57
2018-03-14T20:08:23.911Z,4.40
2018-03-14T20:10:52.737Z,4.80
2018-03-14T20:13:21.668Z,4.70
2018-03-14T20:15:50.511Z,4.30
2018-03-14T20:18:19.354Z,4.53
2018-03-14T20:20:48.139Z,4.80
2018-03-14T20:23:16.982Z,4.43
2018-03-14T20:25:45.785Z,4.67
2018-03-14T20:28:14.579Z,4.77
2018-03-14T20:30:43.387Z,5.10
2018-03-14T20:33:12.362Z,5.10
2018-03-14T20:35:41.267Z,4.73
2018-03-14T20:38:10.045Z,4.40
2018-03-14T20:40:38.836Z,5.13
2018-03-14T20:43:07.637Z,4.37
2018-03-14T20:45:36.470Z,5.03
2018-03-14T20:48:05.333Z,4.40
2018-03-14T20:50:34.153Z,4.97
2018-03-14T20:53:03.016Z,5.07
2018-03-14T20:55:31.923Z,5.00
2018-03-14T20:58:00.811Z,5.20
2018-03-14T21:00:29.620Z,5.57
2018-03-14T21:02:58.496Z,5.27
2018-03-14T21:05:27.302Z,5.57
2018-03-14T21:07:56.114Z,5.03
2018-03-14T21:10:24.976Z,5.90
2018-03-14T21:12:53.780Z,5.37
2018-03-14T21:15:22.684Z,6.00
2018-03-14T21:17:51.458Z,6.03
2018-03-14T21:20:20.354Z,5.97
2018-03-14T21:22:49.186Z,5.60
2018-03-14T21:25:18.080Z,5.87
2018-03-14T21:27:46.891Z,6.23
2018-03-14T21:30:15.700Z,6.00
2018-03-14T21:32:44.548Z,5.47
2018-03-14T21:35:13.360Z,5.87
2018-03-14T21:37:42.171Z,6.00
2018-03-14T21:40:11.023Z,5.57
2018-03-14T21:42:39.890Z,6.10
2018-03-14T21:45:08.705Z,5.80
2018-03-14T21:47:37.603Z,5.90
2018-03-14T21:50:06.422Z,5.97
2018-03-14T21:52:35.215Z,5.80
2018-03-14T21:55:04.035Z,5.63
2018-03-14T21:57:32.855Z,5.73
2018-03-14T22:00:01.765Z,6.13
2018-03-14T22:02:30.551Z,6.33
2018-03-14T22:04:59.488Z,6.00
2018-03-14T22:07:28.270Z,5.80
2018-03-14T22:09:57.053Z,6.17
2018-03-14T22:12:25.867Z,5.83
2018-03-14T22:14:54.669Z,6.20
2018-03-14T22:17:23.506Z,6.97
2018-03-14T22:19:52.456Z,6.50
2018-03-14T22:22:21.196Z,5.87
2018-03-14T22:24:50.010Z,6.47
2018-03-14T22:27:18.870Z,6.53
2018-03-14T22:29:47.690Z,6.70
2018-03-14T22:32:16.564Z,6.40
2018-03-14T22:34:45.369Z,7.20
2018-03-14T22:37:14.319Z,6.53
2018-03-14T22:39:43.127Z,6.53
2018-03-14T22:42:12.043Z,6.47
2018-03-14T22:44:40.841Z,7.07
2018-03-14T22:47:09.657Z,7.03
2018-03-14T22:49:39.231Z,7.00
2018-03-14T22:52:08.037Z,6.73
2018-03-14T22:54:36.855Z,6.80
2018-03-14T22:57:05.655Z,6.90
2018-03-14T22:59:34.459Z,7.10
2018-03-14T23:02:03.259Z,7.03
2018-03-14T23:04:32.074Z,6.93
2018-03-14T23:07:00.911Z,7.27
2018-03-14T23:09:29.794Z,6.80
2018-03-14T23:11:58.623Z,7.27
2018-03-14T23:14:27.485Z,7.23
2018-03-14T23:16:56.298Z,6.80
2018-03-14T23:19:25.170Z,7.23
2018-03-14T23:21:53.981Z,7.80
2018-03-14T23:24:22.776Z,7.50
2018-03-14T23:26:51.655Z,6.77
2018-03-14T23:29:20.659Z,6.67
2018-03-14T23:31:49.543Z,7.00
2018-03-14T23:34:18.363Z,6.93
2018-03-14T23:36:47.228Z,7.40
2018-03-14T23:39:16.045Z,7.13
2018-03-14T23:41:44.846Z,7.07
2018-03-14T23:44:13.659Z,7.57
2018-03-14T23:46:42.447Z,6.93
2018-03-14T23:49:11.304Z,7.43
2018-03-14T23:51:40.103Z,7.10
2018-03-14T23:54:08.919Z,7.33
2018-03-14T23:56:37.784Z,7.60
2018-03-14T23:59:06.671Z,7.50
